sensor_id;sensor_type;location;lat;lon;timestamp;P1;durP1;ratioP1;P2;durP2;ratioP2
545;SDS011;259;53.304;9.816;2023-06-19T00:01:57;8.47;;;7.97;;
545;SDS011;259;53.304;9.816;2023-06-19T00:04:23;7.97;;;7.47;;
545;SDS011;259;53.304;9.816;2023-06-19T00:06:50;7.80;;;7.30;;
545;SDS011;259;53.304;9.816;2023-06-19T00:09:16;9.03;;;8.23;;
545;SDS011;259;53.304;9.816;2023-06-19T00:11:42;8.80;;;8.20;;
545;SDS011;259;53.304;9.816;2023-06-19T00:14:07;8.47;;;7.97;;
545;SDS011;259;53.304;9.816;2023-06-19T00:16:33;8.80;;;8.20;;
545;SDS011;259;53.304;9.816;2023-06-19T00:18:59;8.67;;;8.07;;
545;SDS011;259;53.304;9.816;2023-06-19T00:21:25;8.60;;;8.00;;
545;SDS011;259;53.304;9.816;2023-06-19T00:23:54;8.57;;;8.00;;
545;SDS011;259;53.304;9.816;2023-06-19T00:26:20;9.00;;;8.40;;
545;SDS011;259;53.304;9.816;2023-06-19T00:28:50;8.70;;;8.20;;
545;SDS011;259;53.304;9.816;2023-06-19T00:31:16;8.40;;;7.87;;
545;SDS011;259;53.304;9.816;2023-06-19T00:33:44;8.17;;;7.67;;
545;SDS011;259;53.304;9.816;2023-06-19T00:36:14;9.00;;;8.40;;
545;SDS011;259;53.304;9.816;2023-06-19T00:38:45;8.33;;;7.83;;
545;SDS011;259;53.304;9.816;2023-06-19T00:41:11;8.20;;;7.70;;
545;SDS011;259;53.304;9.816;2023-06-19T00:43:37;8.77;;;8.27;;
545;SDS011;259;53.304;9.816;2023-06-19T00:46:03;8.97;;;8.37;;
545;SDS011;259;53.304;9.816;2023-06-19T00:48:29;8.77;;;8.27;;
545;SDS011;259;53.304;9.816;2023-06-19T00:50:56;8.77;;;8.20;;
545;SDS011;259;53.304;9.816;2023-06-19T00:53:23;8.90;;;8.40;;
545;SDS011;259;53.304;9.816;2023-06-19T00:55:50;9.00;;;8.40;;
545;SDS011;259;53.304;9.816;2023-06-19T00:58:21;9.40;;;8.80;;
545;SDS011;259;53.304;9.816;2023-06-19T01:00:48;8.10;;;7.60;;
545;SDS011;259;53.304;9.816;2023-06-19T01:03:14;8.70;;;8.20;;
545;SDS011;259;53.304;9.816;2023-06-19T01:05:41;9.37;;;8.77;;
545;SDS011;259;53.304;9.816;2023-06-19T01:10:56;9.47;;;8.87;;
545;SDS011;259;53.304;9.816;2023-06-19T01:13:37;9.20;;;8.60;;
545;SDS011;259;53.304;9.816;2023-06-19T01:16:12;9.13;;;8.53;;
545;SDS011;259;53.304;9.816;2023-06-19T01:18:39;9.33;;;8.73;;
545;SDS011;259;53.304;9.816;2023-06-19T01:21:09;8.03;;;7.60;;
545;SDS011;259;53.304;9.816;2023-06-19T01:23:40;9.27;;;8.57;;
545;SDS011;259;53.304;9.816;2023-06-19T01:26:09;8.97;;;8.40;;
545;SDS011;259;53.304;9.816;2023-06-19T01:28:35;9.17;;;8.57;;
545;SDS011;259;53.304;9.816;2023-06-19T01:31:04;9.67;;;9.07;;
545;SDS011;259;53.304;9.816;2023-06-19T01:33:36;9.30;;;8.70;;
545;SDS011;259;53.304;9.816;2023-06-19T01:36:03;9.27;;;8.67;;
545;SDS011;259;53.304;9.816;2023-06-19T01:38:30;9.57;;;8.97;;
545;SDS011;259;53.304;9.816;2023-06-19T01:40:56;8.60;;;8.10;;
545;SDS011;259;53.304;9.816;2023-06-19T01:43:24;9.83;;;9.20;;
545;SDS011;259;53.304;9.816;2023-06-19T01:45:51;8.83;;;8.30;;
545;SDS011;259;53.304;9.816;2023-06-19T01:48:17;8.60;;;8.10;;
545;SDS011;259;53.304;9.816;2023-06-19T01:50:46;9.00;;;8.40;;
545;SDS011;259;53.304;9.816;2023-06-19T01:53:13;9.83;;;9.23;;
545;SDS011;259;53.304;9.816;2023-06-19T01:55:39;9.80;;;9.00;;
545;SDS011;259;53.304;9.816;2023-06-19T01:58:05;9.00;;;8.50;;
545;SDS011;259;53.304;9.816;2023-06-19T02:00:32;9.30;;;8.70;;
545;SDS011;259;53.304;9.816;2023-06-19T02:03:00;9.63;;;8.90;;
545;SDS011;259;53.304;9.816;2023-06-19T02:05:26;9.47;;;8.67;;
545;SDS011;259;53.304;9.816;2023-06-19T02:07:52;9.43;;;8.70;;
545;SDS011;259;53.304;9.816;2023-06-19T02:10:18;9.40;;;8.80;;
545;SDS011;259;53.304;9.816;2023-06-19T02:12:44;9.30;;;8.70;;
545;SDS011;259;53.304;9.816;2023-06-19T02:15:09;9.23;;;8.63;;
545;SDS011;259;53.304;9.816;2023-06-19T02:17:35;8.97;;;8.37;;
545;SDS011;259;53.304;9.816;2023-06-19T02:20:01;10.07;;;9.43;;
545;SDS011;259;53.304;9.816;2023-06-19T02:22:27;9.67;;;9.00;;
545;SDS011;259;53.304;9.816;2023-06-19T02:24:53;9.77;;;9.17;;
545;SDS011;259;53.304;9.816;2023-06-19T02:27:18;9.83;;;9.13;;
545;SDS011;259;53.304;9.816;2023-06-19T02:29:44;9.60;;;8.90;;
545;SDS011;259;53.304;9.816;2023-06-19T02:32:10;10.07;;;9.43;;
545;SDS011;259;53.304;9.816;2023-06-19T02:34:36;9.97;;;9.37;;
545;SDS011;259;53.304;9.816;2023-06-19T02:37:01;9.50;;;8.83;;
545;SDS011;259;53.304;9.816;2023-06-19T02:39:27;10.37;;;9.67;;
545;SDS011;259;53.304;9.816;2023-06-19T02:41:54;10.50;;;9.80;;
545;SDS011;259;53.304;9.816;2023-06-19T02:44:20;10.13;;;9.53;;
545;SDS011;259;53.304;9.816;2023-06-19T02:46:45;10.33;;;9.63;;
545;SDS011;259;53.304;9.816;2023-06-19T02:49:11;9.30;;;8.70;;
545;SDS011;259;53.304;9.816;2023-06-19T02:51:37;9.57;;;8.97;;
545;SDS011;259;53.304;9.816;2023-06-19T02:54:02;9.07;;;8.50;;
545;SDS011;259;53.304;9.816;2023-06-19T02:56:28;9.80;;;9.20;;
545;SDS011;259;53.304;9.816;2023-06-19T02:58:54;10.50;;;9.80;;
545;SDS011;259;53.304;9.816;2023-06-19T03:01:19;10.20;;;9.50;;
545;SDS011;259;53.304;9.816;2023-06-19T03:03:45;10.57;;;9.87;;
545;SDS011;259;53.304;9.816;2023-06-19T03:06:11;10.53;;;9.80;;
545;SDS011;259;53.304;9.816;2023-06-19T03:08:38;10.13;;;9.53;;
545;SDS011;259;53.304;9.816;2023-06-19T03:11:04;9.97;;;9.37;;
545;SDS011;259;53.304;9.816;2023-06-19T03:13:50;10.30;;;9.60;;
545;SDS011;259;53.304;9.816;2023-06-19T03:16:17;10.63;;;9.73;;
545;SDS011;259;53.304;9.816;2023-06-19T03:18:44;10.27;;;9.57;;
545;SDS011;259;53.304;9.816;2023-06-19T03:21:10;10.00;;;9.40;;
545;SDS011;259;53.304;9.816;2023-06-19T03:23:37;9.57;;;8.87;;
545;SDS011;259;53.304;9.816;2023-06-19T03:26:03;8.83;;;8.33;;
545;SDS011;259;53.304;9.816;2023-06-19T03:28:28;10.50;;;9.80;;
545;SDS011;259;53.304;9.816;2023-06-19T03:30:54;10.13;;;9.50;;
545;SDS011;259;53.304;9.816;2023-06-19T03:33:20;9.70;;;9.00;;
545;SDS011;259;53.304;9.816;2023-06-19T03:35:46;10.93;;;10.17;;
545;SDS011;259;53.304;9.816;2023-06-19T03:38:11;9.60;;;9.00;;
545;SDS011;259;53.304;9.816;2023-06-19T03:40:37;10.80;;;10.00;;
545;SDS011;259;53.304;9.816;2023-06-19T03:43:03;9.77;;;9.17;;
545;SDS011;259;53.304;9.816;2023-06-19T03:45:28;11.20;;;10.40;;
545;SDS011;259;53.304;9.816;2023-06-19T03:47:54;10.10;;;9.40;;
545;SDS011;259;53.304;9.816;2023-06-19T03:50:20;9.30;;;8.70;;
545;SDS011;259;53.304;9.816;2023-06-19T03:52:45;10.03;;;9.33;;
545;SDS011;259;53.304;9.816;2023-06-19T03:55:11;10.47;;;9.77;;
545;SDS011;259;53.304;9.816;2023-06-19T03:57:37;9.50;;;8.90;;
545;SDS011;259;53.304;9.816;2023-06-19T04:00:02;9.53;;;8.93;;
545;SDS011;259;53.304;9.816;2023-06-19T04:02:32;9.70;;;9.10;;
545;SDS011;259;53.304;9.816;2023-06-19T04:04:59;9.77;;;9.17;;
545;SDS011;259;53.304;9.816;2023-06-19T04:07:24;10.30;;;9.70;;
545;SDS011;259;53.304;9.816;2023-06-19T04:09:50;9.43;;;8.83;;
545;SDS011;259;53.304;9.816;2023-06-19T04:12:16;10.30;;;9.60;;
545;SDS011;259;53.304;9.816;2023-06-19T04:14:41;11.03;;;10.33;;
545;SDS011;259;53.304;9.816;2023-06-19T04:17:07;9.93;;;9.33;;
545;SDS011;259;53.304;9.816;2023-06-19T04:19:33;10.27;;;9.57;;
545;SDS011;259;53.304;9.816;2023-06-19T04:21:58;10.90;;;10.10;;
545;SDS011;259;53.304;9.816;2023-06-19T04:24:24;9.40;;;8.80;;
545;SDS011;259;53.304;9.816;2023-06-19T04:26:50;10.63;;;9.93;;
545;SDS011;259;53.304;9.816;2023-06-19T04:29:16;10.00;;;9.40;;
545;SDS011;259;53.304;9.816;2023-06-19T04:31:45;9.50;;;8.90;;
545;SDS011;259;53.304;9.816;2023-06-19T04:34:15;9.63;;;9.03;;
545;SDS011;259;53.304;9.816;2023-06-19T04:36:42;9.23;;;8.73;;
545;SDS011;259;53.304;9.816;2023-06-19T04:39:08;10.47;;;9.77;;
545;SDS011;259;53.304;9.816;2023-06-19T04:41:34;10.60;;;9.90;;
545;SDS011;259;53.304;9.816;2023-06-19T04:44:06;11.37;;;10.60;;
545;SDS011;259;53.304;9.816;2023-06-19T04:46:32;10.70;;;9.90;;
545;SDS011;259;53.304;9.816;2023-06-19T04:48:58;9.70;;;9.00;;
545;SDS011;259;53.304;9.816;2023-06-19T04:51:24;9.47;;;8.90;;
545;SDS011;259;53.304;9.816;2023-06-19T04:53:51;10.23;;;9.63;;
545;SDS011;259;53.304;9.816;2023-06-19T04:56:17;10.80;;;10.10;;
545;SDS011;259;53.304;9.816;2023-06-19T04:58:42;10.20;;;9.60;;
545;SDS011;259;53.304;9.816;2023-06-19T05:01:12;11.00;;;10.27;;
545;SDS011;259;53.304;9.816;2023-06-19T05:03:39;9.60;;;9.00;;
545;SDS011;259;53.304;9.816;2023-06-19T05:06:05;10.20;;;9.60;;
545;SDS011;259;53.304;9.816;2023-06-19T05:08:31;11.03;;;10.27;;
545;SDS011;259;53.304;9.816;2023-06-19T05:10:56;10.33;;;9.70;;
545;SDS011;259;53.304;9.816;2023-06-19T05:13:23;10.50;;;9.90;;
545;SDS011;259;53.304;9.816;2023-06-19T05:15:49;9.80;;;9.20;;
545;SDS011;259;53.304;9.816;2023-06-19T05:18:15;9.50;;;9.00;;
545;SDS011;259;53.304;9.816;2023-06-19T05:20:42;9.77;;;9.17;;
545;SDS011;259;53.304;9.816;2023-06-19T05:23:08;10.70;;;10.00;;
545;SDS011;259;53.304;9.816;2023-06-19T05:25:34;10.53;;;9.83;;
545;SDS011;259;53.304;9.816;2023-06-19T05:28:00;10.10;;;9.40;;
545;SDS011;259;53.304;9.816;2023-06-19T05:30:25;10.33;;;9.73;;
545;SDS011;259;53.304;9.816;2023-06-19T05:32:51;10.93;;;10.17;;
545;SDS011;259;53.304;9.816;2023-06-19T05:35:17;10.10;;;9.43;;
545;SDS011;259;53.304;9.816;2023-06-19T05:37:42;10.53;;;9.90;;
545;SDS011;259;53.304;9.816;2023-06-19T05:40:09;10.20;;;9.60;;
545;SDS011;259;53.304;9.816;2023-06-19T05:42:35;9.70;;;9.10;;
545;SDS011;259;53.304;9.816;2023-06-19T05:45:02;10.40;;;9.70;;
545;SDS011;259;53.304;9.816;2023-06-19T05:47:28;10.37;;;9.77;;
545;SDS011;259;53.304;9.816;2023-06-19T05:49:56;10.70;;;10.00;;
545;SDS011;259;53.304;9.816;2023-06-19T05:52:22;10.93;;;10.23;;
545;SDS011;259;53.304;9.816;2023-06-19T05:54:48;10.67;;;9.97;;
545;SDS011;259;53.304;9.816;2023-06-19T05:57:14;10.20;;;9.57;;
545;SDS011;259;53.304;9.816;2023-06-19T05:59:46;10.57;;;9.97;;
545;SDS011;259;53.304;9.816;2023-06-19T06:02:12;10.87;;;10.17;;
545;SDS011;259;53.304;9.816;2023-06-19T06:04:38;9.87;;;9.27;;
545;SDS011;259;53.304;9.816;2023-06-19T06:07:04;10.40;;;9.70;;
545;SDS011;259;53.304;9.816;2023-06-19T06:09:30;10.77;;;9.97;;
545;SDS011;259;53.304;9.816;2023-06-19T06:11:58;10.60;;;9.90;;
545;SDS011;259;53.304;9.816;2023-06-19T06:14:23;10.80;;;10.10;;
545;SDS011;259;53.304;9.816;2023-06-19T06:16:49;10.03;;;9.20;;
545;SDS011;259;53.304;9.816;2023-06-19T06:19:15;10.77;;;10.07;;
545;SDS011;259;53.304;9.816;2023-06-19T06:21:41;10.20;;;9.50;;
545;SDS011;259;53.304;9.816;2023-06-19T06:24:07;11.03;;;10.30;;
545;SDS011;259;53.304;9.816;2023-06-19T06:26:32;10.03;;;9.43;;
545;SDS011;259;53.304;9.816;2023-06-19T06:28:58;9.53;;;8.93;;
545;SDS011;259;53.304;9.816;2023-06-19T06:31:24;9.83;;;9.13;;
545;SDS011;259;53.304;9.816;2023-06-19T06:33:50;9.70;;;9.10;;
545;SDS011;259;53.304;9.816;2023-06-19T06:36:15;10.20;;;9.60;;
545;SDS011;259;53.304;9.816;2023-06-19T06:38:41;9.63;;;9.03;;
545;SDS011;259;53.304;9.816;2023-06-19T06:41:07;10.03;;;9.40;;
545;SDS011;259;53.304;9.816;2023-06-19T06:43:33;9.10;;;8.50;;
545;SDS011;259;53.304;9.816;2023-06-19T06:45:59;10.00;;;9.40;;
545;SDS011;259;53.304;9.816;2023-06-19T06:48:25;10.60;;;9.90;;
545;SDS011;259;53.304;9.816;2023-06-19T06:50:51;10.40;;;9.70;;
545;SDS011;259;53.304;9.816;2023-06-19T06:53:25;10.97;;;10.27;;
545;SDS011;259;53.304;9.816;2023-06-19T06:55:53;10.43;;;9.73;;
545;SDS011;259;53.304;9.816;2023-06-19T06:58:19;10.30;;;9.60;;
545;SDS011;259;53.304;9.816;2023-06-19T07:00:45;9.50;;;8.90;;
545;SDS011;259;53.304;9.816;2023-06-19T07:03:11;10.40;;;9.80;;
545;SDS011;259;53.304;9.816;2023-06-19T07:05:36;9.77;;;9.07;;
545;SDS011;259;53.304;9.816;2023-06-19T07:08:02;9.87;;;9.17;;
545;SDS011;259;53.304;9.816;2023-06-19T07:10:29;10.10;;;9.40;;
545;SDS011;259;53.304;9.816;2023-06-19T07:12:57;10.27;;;9.57;;
545;SDS011;259;53.304;9.816;2023-06-19T07:15:23;10.43;;;9.73;;
545;SDS011;259;53.304;9.816;2023-06-19T07:17:48;11.60;;;10.70;;
545;SDS011;259;53.304;9.816;2023-06-19T07:20:14;11.10;;;10.00;;
545;SDS011;259;53.304;9.816;2023-06-19T07:22:40;12.03;;;10.87;;
545;SDS011;259;53.304;9.816;2023-06-19T07:25:07;11.53;;;10.43;;
545;SDS011;259;53.304;9.816;2023-06-19T07:27:35;16.13;;;10.83;;
545;SDS011;259;53.304;9.816;2023-06-19T07:30:02;13.03;;;11.57;;
545;SDS011;259;53.304;9.816;2023-06-19T07:32:27;12.57;;;11.33;;
545;SDS011;259;53.304;9.816;2023-06-19T07:34:53;13.00;;;11.70;;
545;SDS011;259;53.304;9.816;2023-06-19T07:37:19;14.63;;;10.93;;
545;SDS011;259;53.304;9.816;2023-06-19T07:39:46;13.37;;;11.60;;
545;SDS011;259;53.304;9.816;2023-06-19T07:42:14;12.37;;;11.27;;
545;SDS011;259;53.304;9.816;2023-06-19T07:44:41;12.87;;;11.33;;
545;SDS011;259;53.304;9.816;2023-06-19T07:47:07;12.77;;;11.53;;
545;SDS011;259;53.304;9.816;2023-06-19T07:49:34;12.53;;;11.63;;
545;SDS011;259;53.304;9.816;2023-06-19T07:52:04;12.50;;;11.60;;
545;SDS011;259;53.304;9.816;2023-06-19T07:54:33;11.40;;;10.70;;
545;SDS011;259;53.304;9.816;2023-06-19T07:56:59;11.90;;;11.10;;
545;SDS011;259;53.304;9.816;2023-06-19T07:59:25;12.07;;;11.23;;
545;SDS011;259;53.304;9.816;2023-06-19T08:01:51;11.80;;;11.00;;
545;SDS011;259;53.304;9.816;2023-06-19T08:04:17;12.67;;;11.67;;
545;SDS011;259;53.304;9.816;2023-06-19T08:06:42;12.50;;;11.57;;
545;SDS011;259;53.304;9.816;2023-06-19T08:09:08;12.20;;;11.30;;
545;SDS011;259;53.304;9.816;2023-06-19T08:11:34;10.90;;;10.10;;
545;SDS011;259;53.304;9.816;2023-06-19T08:14:00;13.13;;;12.03;;
545;SDS011;259;53.304;9.816;2023-06-19T08:16:26;12.27;;;11.37;;
545;SDS011;259;53.304;9.816;2023-06-19T08:18:52;11.43;;;10.63;;
545;SDS011;259;53.304;9.816;2023-06-19T08:21:17;11.63;;;10.83;;
545;SDS011;259;53.304;9.816;2023-06-19T08:23:45;11.23;;;10.33;;
545;SDS011;259;53.304;9.816;2023-06-19T08:26:11;11.70;;;10.80;;
545;SDS011;259;53.304;9.816;2023-06-19T08:28:37;11.60;;;10.50;;
545;SDS011;259;53.304;9.816;2023-06-19T08:31:03;10.87;;;9.97;;
545;SDS011;259;53.304;9.816;2023-06-19T08:33:29;11.63;;;10.50;;
545;SDS011;259;53.304;9.816;2023-06-19T08:35:54;10.63;;;9.93;;
545;SDS011;259;53.304;9.816;2023-06-19T08:38:20;12.47;;;11.57;;
545;SDS011;259;53.304;9.816;2023-06-19T08:40:46;11.90;;;11.00;;
545;SDS011;259;53.304;9.816;2023-06-19T08:43:11;11.17;;;10.27;;
545;SDS011;259;53.304;9.816;2023-06-19T08:45:37;10.40;;;9.57;;
545;SDS011;259;53.304;9.816;2023-06-19T08:48:03;11.47;;;10.57;;
545;SDS011;259;53.304;9.816;2023-06-19T08:50:29;10.37;;;9.60;;
545;SDS011;259;53.304;9.816;2023-06-19T08:52:56;10.50;;;9.80;;
545;SDS011;259;53.304;9.816;2023-06-19T08:55:22;9.60;;;8.97;;
545;SDS011;259;53.304;9.816;2023-06-19T08:57:49;10.17;;;9.17;;
545;SDS011;259;53.304;9.816;2023-06-19T09:00:26;9.80;;;8.97;;
545;SDS011;259;53.304;9.816;2023-06-19T09:03:02;10.40;;;9.50;;
545;SDS011;259;53.304;9.816;2023-06-19T09:05:29;9.40;;;8.63;;
545;SDS011;259;53.304;9.816;2023-06-19T09:07:55;10.70;;;9.60;;
545;SDS011;259;53.304;9.816;2023-06-19T09:10:28;10.23;;;9.53;;
545;SDS011;259;53.304;9.816;2023-06-19T09:12:56;9.73;;;9.03;;
545;SDS011;259;53.304;9.816;2023-06-19T09:15:23;9.73;;;9.03;;
545;SDS011;259;53.304;9.816;2023-06-19T09:17:59;9.73;;;9.00;;
545;SDS011;259;53.304;9.816;2023-06-19T09:20:40;9.80;;;9.10;;
545;SDS011;259;53.304;9.816;2023-06-19T09:23:09;9.90;;;9.20;;
545;SDS011;259;53.304;9.816;2023-06-19T09:25:46;10.00;;;9.30;;
545;SDS011;259;53.304;9.816;2023-06-19T09:28:17;9.03;;;8.43;;
545;SDS011;259;53.304;9.816;2023-06-19T09:30:54;10.17;;;9.40;;
545;SDS011;259;53.304;9.816;2023-06-19T09:33:28;11.10;;;10.23;;
545;SDS011;259;53.304;9.816;2023-06-19T09:35:55;10.10;;;9.30;;
545;SDS011;259;53.304;9.816;2023-06-19T09:38:24;10.50;;;9.77;;
545;SDS011;259;53.304;9.816;2023-06-19T09:40:52;9.87;;;9.20;;
545;SDS011;259;53.304;9.816;2023-06-19T09:43:20;10.00;;;9.27;;
545;SDS011;259;53.304;9.816;2023-06-19T09:45:50;10.80;;;10.03;;
545;SDS011;259;53.304;9.816;2023-06-19T09:48:22;10.50;;;9.70;;
545;SDS011;259;53.304;9.816;2023-06-19T09:50:54;10.00;;;9.30;;
545;SDS011;259;53.304;9.816;2023-06-19T09:53:45;10.67;;;9.83;;
545;SDS011;259;53.304;9.816;2023-06-19T09:56:13;10.03;;;9.40;;
545;SDS011;259;53.304;9.816;2023-06-19T09:58:42;10.20;;;9.50;;
545;SDS011;259;53.304;9.816;2023-06-19T10:01:08;11.00;;;10.20;;
545;SDS011;259;53.304;9.816;2023-06-19T10:03:35;10.57;;;9.80;;
545;SDS011;259;53.304;9.816;2023-06-19T10:06:02;10.60;;;9.90;;
545;SDS011;259;53.304;9.816;2023-06-19T10:08:38;9.87;;;9.20;;
545;SDS011;259;53.304;9.816;2023-06-19T10:11:05;10.03;;;9.33;;
545;SDS011;259;53.304;9.816;2023-06-19T10:13:32;9.80;;;9.10;;
545;SDS011;259;53.304;9.816;2023-06-19T10:16:05;10.40;;;9.60;;
545;SDS011;259;53.304;9.816;2023-06-19T10:18:32;10.60;;;9.90;;
545;SDS011;259;53.304;9.816;2023-06-19T10:21:17;9.57;;;8.97;;
545;SDS011;259;53.304;9.816;2023-06-19T10:23:53;10.30;;;9.50;;
545;SDS011;259;53.304;9.816;2023-06-19T10:26:20;9.80;;;9.10;;
545;SDS011;259;53.304;9.816;2023-06-19T10:29:00;11.50;;;10.70;;
545;SDS011;259;53.304;9.816;2023-06-19T10:31:29;10.20;;;9.40;;
545;SDS011;259;53.304;9.816;2023-06-19T10:33:55;10.33;;;9.63;;
545;SDS011;259;53.304;9.816;2023-06-19T10:36:21;9.83;;;9.13;;
545;SDS011;259;53.304;9.816;2023-06-19T10:38:50;9.97;;;9.27;;
545;SDS011;259;53.304;9.816;2023-06-19T10:41:20;10.30;;;9.40;;
545;SDS011;259;53.304;9.816;2023-06-19T10:43:55;10.07;;;9.37;;
545;SDS011;259;53.304;9.816;2023-06-19T10:46:30;8.90;;;8.30;;
545;SDS011;259;53.304;9.816;2023-06-19T10:48:59;10.77;;;9.97;;
545;SDS011;259;53.304;9.816;2023-06-19T10:51:35;9.10;;;8.50;;
545;SDS011;259;53.304;9.816;2023-06-19T10:54:03;9.63;;;8.93;;
545;SDS011;259;53.304;9.816;2023-06-19T10:56:29;9.90;;;9.10;;
545;SDS011;259;53.304;9.816;2023-06-19T10:59:01;9.40;;;8.70;;
545;SDS011;259;53.304;9.816;2023-06-19T11:01:35;8.93;;;8.33;;
545;SDS011;259;53.304;9.816;2023-06-19T11:04:03;9.20;;;8.50;;
545;SDS011;259;53.304;9.816;2023-06-19T11:06:33;9.60;;;8.90;;
545;SDS011;259;53.304;9.816;2023-06-19T11:09:00;9.57;;;8.93;;
545;SDS011;259;53.304;9.816;2023-06-19T11:11:36;9.27;;;8.67;;
545;SDS011;259;53.304;9.816;2023-06-19T11:14:02;8.80;;;8.20;;
545;SDS011;259;53.304;9.816;2023-06-19T11:16:29;10.37;;;9.57;;
545;SDS011;259;53.304;9.816;2023-06-19T11:18:57;7.70;;;7.20;;
545;SDS011;259;53.304;9.816;2023-06-19T11:21:30;10.60;;;9.77;;
545;SDS011;259;53.304;9.816;2023-06-19T11:24:03;9.83;;;9.13;;
545;SDS011;259;53.304;9.816;2023-06-19T11:26:43;9.30;;;8.60;;
545;SDS011;259;53.304;9.816;2023-06-19T11:29:21;8.10;;;7.60;;
545;SDS011;259;53.304;9.816;2023-06-19T11:31:49;8.83;;;8.20;;
545;SDS011;259;53.304;9.816;2023-06-19T11:34:19;8.27;;;7.57;;
545;SDS011;259;53.304;9.816;2023-06-19T11:36:45;9.37;;;8.47;;
545;SDS011;259;53.304;9.816;2023-06-19T11:39:11;8.30;;;7.70;;
545;SDS011;259;53.304;9.816;2023-06-19T11:41:39;10.37;;;9.23;;
545;SDS011;259;53.304;9.816;2023-06-19T11:44:06;7.67;;;7.17;;
545;SDS011;259;53.304;9.816;2023-06-19T11:46:34;8.47;;;7.87;;
545;SDS011;259;53.304;9.816;2023-06-19T11:49:15;9.20;;;8.50;;
545;SDS011;259;53.304;9.816;2023-06-19T11:51:45;9.53;;;8.83;;
545;SDS011;259;53.304;9.816;2023-06-19T11:54:12;8.80;;;8.17;;
545;SDS011;259;53.304;9.816;2023-06-19T11:56:42;8.83;;;8.23;;
545;SDS011;259;53.304;9.816;2023-06-19T11:59:08;7.83;;;7.27;;
545;SDS011;259;53.304;9.816;2023-06-19T12:01:35;8.53;;;7.70;;
545;SDS011;259;53.304;9.816;2023-06-19T12:04:02;9.50;;;8.67;;
545;SDS011;259;53.304;9.816;2023-06-19T12:06:29;7.47;;;6.97;;
545;SDS011;259;53.304;9.816;2023-06-19T12:08:55;8.23;;;7.67;;
545;SDS011;259;53.304;9.816;2023-06-19T12:11:21;8.20;;;7.63;;
545;SDS011;259;53.304;9.816;2023-06-19T12:13:47;7.53;;;7.03;;
545;SDS011;259;53.304;9.816;2023-06-19T12:16:13;8.10;;;7.50;;
545;SDS011;259;53.304;9.816;2023-06-19T12:18:39;8.00;;;7.40;;
545;SDS011;259;53.304;9.816;2023-06-19T12:21:06;7.53;;;7.03;;
545;SDS011;259;53.304;9.816;2023-06-19T12:23:32;7.43;;;6.90;;
545;SDS011;259;53.304;9.816;2023-06-19T12:25:58;6.70;;;6.20;;
545;SDS011;259;53.304;9.816;2023-06-19T12:28:24;6.17;;;5.67;;
545;SDS011;259;53.304;9.816;2023-06-19T12:30:50;6.10;;;5.70;;
545;SDS011;259;53.304;9.816;2023-06-19T12:33:18;5.53;;;5.23;;
545;SDS011;259;53.304;9.816;2023-06-19T12:35:48;5.30;;;4.90;;
545;SDS011;259;53.304;9.816;2023-06-19T12:38:14;5.50;;;5.20;;
545;SDS011;259;53.304;9.816;2023-06-19T12:40:41;6.10;;;5.70;;
545;SDS011;259;53.304;9.816;2023-06-19T12:43:07;5.60;;;5.10;;
545;SDS011;259;53.304;9.816;2023-06-19T12:45:32;5.97;;;5.57;;
545;SDS011;259;53.304;9.816;2023-06-19T12:47:59;5.43;;;5.13;;
545;SDS011;259;53.304;9.816;2023-06-19T12:50:24;4.53;;;4.30;;
545;SDS011;259;53.304;9.816;2023-06-19T12:52:50;5.07;;;4.70;;
545;SDS011;259;53.304;9.816;2023-06-19T12:55:16;5.63;;;5.23;;
545;SDS011;259;53.304;9.816;2023-06-19T12:57:42;4.80;;;4.50;;
545;SDS011;259;53.304;9.816;2023-06-19T13:00:10;4.53;;;4.23;;
545;SDS011;259;53.304;9.816;2023-06-19T13:02:37;4.43;;;4.23;;
545;SDS011;259;53.304;9.816;2023-06-19T13:05:08;5.07;;;4.27;;
545;SDS011;259;53.304;9.816;2023-06-19T13:07:34;4.97;;;4.57;;
545;SDS011;259;53.304;9.816;2023-06-19T13:10:00;4.70;;;4.40;;
545;SDS011;259;53.304;9.816;2023-06-19T13:12:26;5.00;;;4.60;;
545;SDS011;259;53.304;9.816;2023-06-19T13:14:52;4.40;;;4.10;;
545;SDS011;259;53.304;9.816;2023-06-19T13:17:18;3.87;;;3.67;;
545;SDS011;259;53.304;9.816;2023-06-19T13:19:44;14.93;;;4.57;;
545;SDS011;259;53.304;9.816;2023-06-19T13:22:10;4.63;;;4.33;;
545;SDS011;259;53.304;9.816;2023-06-19T13:24:36;4.10;;;3.90;;
545;SDS011;259;53.304;9.816;2023-06-19T13:27:01;4.73;;;4.43;;
545;SDS011;259;53.304;9.816;2023-06-19T13:29:27;4.33;;;4.03;;
545;SDS011;259;53.304;9.816;2023-06-19T13:31:53;5.73;;;4.93;;
545;SDS011;259;53.304;9.816;2023-06-19T13:34:19;5.80;;;5.30;;
545;SDS011;259;53.304;9.816;2023-06-19T13:36:46;4.97;;;4.67;;
545;SDS011;259;53.304;9.816;2023-06-19T13:39:12;5.23;;;4.93;;
545;SDS011;259;53.304;9.816;2023-06-19T13:41:38;4.90;;;4.50;;
545;SDS011;259;53.304;9.816;2023-06-19T13:44:04;5.87;;;5.47;;
545;SDS011;259;53.304;9.816;2023-06-19T13:46:29;5.33;;;4.97;;
545;SDS011;259;53.304;9.816;2023-06-19T13:48:56;6.13;;;5.73;;
545;SDS011;259;53.304;9.816;2023-06-19T13:51:23;5.20;;;4.87;;
545;SDS011;259;53.304;9.816;2023-06-19T13:53:49;5.23;;;4.87;;
545;SDS011;259;53.304;9.816;2023-06-19T13:56:16;5.43;;;5.03;;
545;SDS011;259;53.304;9.816;2023-06-19T13:58:41;5.00;;;4.70;;
545;SDS011;259;53.304;9.816;2023-06-19T14:01:07;5.40;;;5.10;;
545;SDS011;259;53.304;9.816;2023-06-19T14:03:33;5.37;;;5.07;;
545;SDS011;259;53.304;9.816;2023-06-19T14:06:01;5.43;;;5.13;;
545;SDS011;259;53.304;9.816;2023-06-19T14:08:27;5.90;;;5.50;;
545;SDS011;259;53.304;9.816;2023-06-19T14:10:54;5.93;;;5.50;;
545;SDS011;259;53.304;9.816;2023-06-19T14:13:20;4.80;;;4.47;;
545;SDS011;259;53.304;9.816;2023-06-19T14:15:46;5.27;;;4.70;;
545;SDS011;259;53.304;9.816;2023-06-19T14:18:12;5.50;;;5.00;;
545;SDS011;259;53.304;9.816;2023-06-19T14:20:38;4.90;;;4.60;;
545;SDS011;259;53.304;9.816;2023-06-19T14:23:03;5.43;;;4.00;;
545;SDS011;259;53.304;9.816;2023-06-19T14:25:29;4.70;;;4.33;;
545;SDS011;259;53.304;9.816;2023-06-19T14:27:55;5.67;;;4.30;;
545;SDS011;259;53.304;9.816;2023-06-19T14:30:20;4.17;;;3.87;;
545;SDS011;259;53.304;9.816;2023-06-19T14:32:47;4.57;;;4.10;;
545;SDS011;259;53.304;9.816;2023-06-19T14:35:13;4.47;;;4.07;;
545;SDS011;259;53.304;9.816;2023-06-19T14:37:39;5.00;;;4.63;;
545;SDS011;259;53.304;9.816;2023-06-19T14:40:04;4.40;;;4.10;;
545;SDS011;259;53.304;9.816;2023-06-19T14:42:31;4.07;;;3.70;;
545;SDS011;259;53.304;9.816;2023-06-19T14:44:57;3.80;;;3.50;;
545;SDS011;259;53.304;9.816;2023-06-19T14:47:23;4.07;;;3.83;;
545;SDS011;259;53.304;9.816;2023-06-19T14:49:50;4.53;;;4.23;;
545;SDS011;259;53.304;9.816;2023-06-19T14:52:16;4.10;;;3.90;;
545;SDS011;259;53.304;9.816;2023-06-19T14:54:44;4.67;;;4.10;;
545;SDS011;259;53.304;9.816;2023-06-19T14:57:10;5.90;;;5.37;;
545;SDS011;259;53.304;9.816;2023-06-19T14:59:35;5.17;;;4.77;;
545;SDS011;259;53.304;9.816;2023-06-19T15:02:01;7.50;;;5.67;;
545;SDS011;259;53.304;9.816;2023-06-19T15:04:27;7.27;;;5.20;;
545;SDS011;259;53.304;9.816;2023-06-19T15:06:53;5.40;;;4.20;;
545;SDS011;259;53.304;9.816;2023-06-19T15:09:19;7.40;;;5.17;;
545;SDS011;259;53.304;9.816;2023-06-19T15:11:45;5.80;;;5.40;;
545;SDS011;259;53.304;9.816;2023-06-19T15:14:10;5.87;;;5.30;;
545;SDS011;259;53.304;9.816;2023-06-19T15:16:36;5.87;;;5.40;;
545;SDS011;259;53.304;9.816;2023-06-19T15:19:02;5.40;;;5.03;;
545;SDS011;259;53.304;9.816;2023-06-19T15:21:27;6.13;;;5.60;;
545;SDS011;259;53.304;9.816;2023-06-19T15:23:53;6.30;;;5.83;;
545;SDS011;259;53.304;9.816;2023-06-19T15:26:20;6.67;;;6.17;;
545;SDS011;259;53.304;9.816;2023-06-19T15:28:47;6.77;;;6.27;;
545;SDS011;259;53.304;9.816;2023-06-19T15:31:13;6.87;;;6.37;;
545;SDS011;259;53.304;9.816;2023-06-19T15:33:40;7.17;;;6.60;;
545;SDS011;259;53.304;9.816;2023-06-19T15:36:06;6.57;;;5.97;;
545;SDS011;259;53.304;9.816;2023-06-19T15:38:33;7.80;;;7.20;;
545;SDS011;259;53.304;9.816;2023-06-19T15:40:58;8.53;;;7.83;;